Puerto del Rosario, Spain
Current Conditions -  °F | °C
As of 8:00 AM on Saturday 01 Nov 2014 (Local Time) from GCFV Reporting Station
Clear Clear  
Wind Chill: 75°   Ceiling: Unl
Heat Index: 75°   Visibility: 6mi
Dew Point: 64°   Wind: 17mph
Humidity: 69%   Direction: 330°NNW
Pressure: 29.97"   Gusts: NA
Location:  28.5°N, 13.86°W
Report Text: GCFV 010800Z 33015KT CAVOK 24/18 Q1015
Loading
Personal Weather Stations






























Interactive Weather Map
Tropical Storm Tracking
New forecast layout! Learn more

10-Day Weather Forecast

Advertisements
Track Severe Weather on mobile